Aérodrome :







RETROUVEZ-NOUS SUR...

 
LOGIN :

S'inscrire | Disclaimer

   EN    FR    IT 

 









Légende :    VFR   VFR Marginal   IFR   IFR Intensif   IFR Très Intensif
Visi : 
Plafond : 
>= 8 km
>= 3000ft
5 à 8 km
1000 à 3000 ft
1500m à 5 km
500 à 1000 ft
800 à 1500m
200 à 500 ft
< 800m
< 200 ft
Symboles :   Orages  Brouillard  Fortes neiges  Fortes précipitations  Vent > 20 kt






- Altitude de l'aérodrome : 215 ft
- Code IATA : MSS


KMSS - Massena International Richards Field

DERNIER METAR :
  • 281853Z AUTO 21009G16KT 10SM FEW046 28/18 A2997 RMK AO2 SLP145 T02830183

METARs EXPIRÉS :
  • 281753Z AUTO 20009KT 10SM CLR 28/17 A3000 RMK AO2 SLP156 T02780172 10278 20233 58013
  • 281653Z AUTO 19009KT 10SM FEW045 SCT055 27/17 A3002 RMK AO2 SLP163 T02720172

TAF KMSS
Valide du 28 à 18h jusqu'au 29 à 18h UTC


281734Z 2818/2918 19010G18KT P6SM SCT050
FM290200 19010KT P6SM VCSH BKN030
FM290300 19011KT P6SM OVC028 WS020/21040KT
FM290900 22010KT P6SM BKN028 WS020/23040KT
FM291200 21010KT P6SM VCSH BKN040
FIR KZBW / Amérique du Nord



MET'MAP, la Météo Aéronautique d'un coup d'oeil ! - Copyright ORBIFLY Décembre 2007 - Disclaimer

ORBIFLY MET'MAP TEAM :

Programmation & Développement : Alexandra Zaïnal
Sur une idée originale de : Baudouin d'Aumeries
Assistance à la programmation : Marc-Olivier Méhu
Soutien technique & logistique : Manuel Goepfert

Contact : metmap@orbifly.com




SOURCES & CREDITS :

   NOAA